createdAt,value
2018-07-10T00:03:14.422Z,5.03
2018-07-10T00:07:01.158Z,3.63
2018-07-10T00:09:48.117Z,4.80
2018-07-10T00:12:16.483Z,4.10
2018-07-10T00:14:44.759Z,4.33
2018-07-10T00:17:13.081Z,3.33
2018-07-10T00:19:41.382Z,3.23
2018-07-10T00:22:09.801Z,3.90
2018-07-10T00:24:38.090Z,2.97
2018-07-10T00:27:07.389Z,3.70
2018-07-10T00:29:35.690Z,4.10
2018-07-10T00:32:03.937Z,3.40
2018-07-10T00:34:32.221Z,4.60
2018-07-10T00:37:00.503Z,3.63
2018-07-10T00:39:28.797Z,3.87
2018-07-10T00:41:57.060Z,3.20
2018-07-10T00:44:25.362Z,3.63
2018-07-10T00:46:53.653Z,3.20
2018-07-10T00:49:22.005Z,4.00
2018-07-10T00:51:50.316Z,4.63
2018-07-10T00:54:18.621Z,5.47
2018-07-10T00:56:46.924Z,5.23
2018-07-10T00:59:15.378Z,5.57
2018-07-10T01:01:44.209Z,5.00
2018-07-10T01:04:12.487Z,3.97
2018-07-10T01:06:40.855Z,4.67
2018-07-10T01:09:13.726Z,3.40
2018-07-10T01:11:42.618Z,3.50
2018-07-10T01:14:10.949Z,5.43
2018-07-10T01:16:39.938Z,3.30
2018-07-10T01:19:12.361Z,3.60
2018-07-10T01:21:41.261Z,2.93
2018-07-10T01:24:09.621Z,3.47
2018-07-10T01:26:42.153Z,3.53
2018-07-10T01:29:20.338Z,3.27
2018-07-10T01:31:50.192Z,2.97
2018-07-10T01:34:18.498Z,3.57
2018-07-10T01:36:46.789Z,3.93
2018-07-10T01:39:15.457Z,4.10
2018-07-10T01:41:44.302Z,3.60
2018-07-10T01:44:12.619Z,3.20
2018-07-10T01:46:41.009Z,3.00
2018-07-10T01:49:09.272Z,3.30
2018-07-10T01:51:38.500Z,3.50
2018-07-10T01:55:10.841Z,4.10
2018-07-10T01:57:39.449Z,4.43
2018-07-10T02:00:07.737Z,3.77
2018-07-10T02:02:36.041Z,3.30
2018-07-10T02:05:04.330Z,3.50
2018-07-10T02:07:32.661Z,3.90
2018-07-10T02:10:00.941Z,4.60
2018-07-10T02:12:29.256Z,3.10
2018-07-10T02:14:57.549Z,3.53
2018-07-10T02:17:25.978Z,4.30
2018-07-10T02:19:54.296Z,3.90
2018-07-10T02:22:22.602Z,4.00
2018-07-10T02:24:50.910Z,3.50
2018-07-10T02:27:19.201Z,3.83
2018-07-10T02:29:47.749Z,4.73
2018-07-10T02:32:16.027Z,3.70
2018-07-10T02:34:44.340Z,4.07
2018-07-10T02:37:12.649Z,4.13
2018-07-10T02:39:41.069Z,4.30
2018-07-10T02:42:09.352Z,3.33
2018-07-10T02:44:37.650Z,5.73
2018-07-10T02:47:05.957Z,3.53
2018-07-10T02:49:34.274Z,3.57
2018-07-10T02:52:05.689Z,3.90
2018-07-10T02:54:36.431Z,5.27
2018-07-10T02:57:07.829Z,4.30
2018-07-10T02:59:40.993Z,5.47
2018-07-10T03:02:22.489Z,4.43
2018-07-10T03:04:56.350Z,4.60
2018-07-10T03:07:25.681Z,4.70
2018-07-10T03:09:54.377Z,4.10
2018-07-10T03:12:22.659Z,4.23
2018-07-10T03:14:50.974Z,5.40
2018-07-10T03:17:21.556Z,4.77
2018-07-10T03:19:50.427Z,4.27
2018-07-10T03:22:19.445Z,4.80
2018-07-10T03:24:47.881Z,5.27
2018-07-10T03:27:16.193Z,4.50
2018-07-10T03:29:44.484Z,5.17
2018-07-10T03:32:12.801Z,4.53
2018-07-10T03:34:41.106Z,5.93
2018-07-10T03:37:09.420Z,5.70
2018-07-10T03:39:39.808Z,5.07
2018-07-10T03:42:09.771Z,5.33
2018-07-10T03:44:40.285Z,4.90
2018-07-10T03:47:11.500Z,6.27
2018-07-10T03:49:39.960Z,5.43
2018-07-10T03:52:08.273Z,6.00
2018-07-10T03:54:39.098Z,5.93
2018-07-10T03:57:07.405Z,6.50
2018-07-10T03:59:41.711Z,6.60
2018-07-10T04:02:10.025Z,6.17
2018-07-10T04:04:38.301Z,6.70
2018-07-10T04:07:06.633Z,6.30
2018-07-10T04:09:35.013Z,6.60
2018-07-10T04:12:03.333Z,6.73
2018-07-10T04:14:31.637Z,7.20
2018-07-10T04:16:59.945Z,8.90
2018-07-10T04:19:28.941Z,7.63
2018-07-10T04:21:58.377Z,8.63
2018-07-10T04:24:26.872Z,7.40
2018-07-10T04:27:33.421Z,6.53
2018-07-10T04:30:13.141Z,7.60
2018-07-10T04:32:42.184Z,7.57
2018-07-10T04:35:15.112Z,8.37
2018-07-10T04:37:47.281Z,8.60
2018-07-10T04:40:15.589Z,7.77
2018-07-10T04:42:48.705Z,7.07
2018-07-10T04:45:17.849Z,9.53
2018-07-10T04:47:50.925Z,7.53
2018-07-10T04:50:21.779Z,7.53
2018-07-10T04:52:54.034Z,7.53
2018-07-10T04:55:22.351Z,8.67
2018-07-10T04:58:00.611Z,8.57
2018-07-10T05:00:29.606Z,8.90
2018-07-10T05:02:58.757Z,9.13
2018-07-10T05:05:29.121Z,8.23
2018-07-10T05:07:57.464Z,8.13
2018-07-10T05:10:25.861Z,8.23
2018-07-10T05:12:54.249Z,8.10
2018-07-10T05:15:22.665Z,8.07
2018-07-10T05:17:51.857Z,8.47
2018-07-10T05:20:21.621Z,7.77
2018-07-10T05:22:49.901Z,7.70
2018-07-10T05:25:18.847Z,8.30
2018-07-10T05:27:47.186Z,6.93
2018-07-10T05:30:16.093Z,6.60
2018-07-10T05:32:44.425Z,5.77
2018-07-10T05:35:12.717Z,6.43
2018-07-10T05:37:41.226Z,6.37
2018-07-10T05:40:10.869Z,5.50
2018-07-10T05:42:48.757Z,6.80
2018-07-10T05:45:20.653Z,6.17
2018-07-10T05:47:54.019Z,6.57
2018-07-10T05:50:22.309Z,7.40
2018-07-10T05:52:50.870Z,7.77
2018-07-10T05:55:25.520Z,7.20
2018-07-10T05:57:54.365Z,8.63
2018-07-10T06:00:22.773Z,6.40
2018-07-10T06:02:51.334Z,7.53
2018-07-10T06:05:20.010Z,6.00
2018-07-10T06:07:50.248Z,6.87
2018-07-10T06:10:18.609Z,6.50
2018-07-10T06:12:47.392Z,7.97
2018-07-10T06:15:16.256Z,7.10
2018-07-10T06:17:44.481Z,7.10
2018-07-10T06:20:12.760Z,5.83
2018-07-10T06:22:41.430Z,6.93
2018-07-10T06:25:09.674Z,8.60
2018-07-10T06:27:46.445Z,7.37
2018-07-10T06:30:14.943Z,6.40
2018-07-10T06:32:52.078Z,7.30
2018-07-10T06:35:30.741Z,6.60
2018-07-10T06:37:59.645Z,6.60
2018-07-10T06:40:28.797Z,6.53
2018-07-10T06:43:05.965Z,5.70
2018-07-10T06:45:34.271Z,5.93
2018-07-10T06:48:03.346Z,6.03
2018-07-10T06:50:34.553Z,5.50
2018-07-10T06:53:03.781Z,5.43
2018-07-10T06:55:40.208Z,5.77
2018-07-10T06:58:08.529Z,5.73
2018-07-10T07:00:36.845Z,5.30
2018-07-10T07:03:05.157Z,6.30
2018-07-10T07:05:33.614Z,4.43
2018-07-10T07:08:01.922Z,6.17
2018-07-10T07:10:32.197Z,4.27
2018-07-10T07:13:00.477Z,4.70
2018-07-10T07:15:28.765Z,4.10
2018-07-10T07:17:57.125Z,5.57
2018-07-10T07:20:25.421Z,4.90
2018-07-10T07:22:53.737Z,3.70
2018-07-10T07:25:22.055Z,3.37
2018-07-10T07:27:50.341Z,2.90
2018-07-10T07:30:18.621Z,3.50
2018-07-10T07:32:47.178Z,2.60
2018-07-10T07:35:15.456Z,3.70
2018-07-10T07:37:43.732Z,3.10
2018-07-10T07:40:12.493Z,3.27
2018-07-10T07:42:41.573Z,2.87
2018-07-10T07:45:10.374Z,2.40
2018-07-10T07:47:38.677Z,1.87
2018-07-10T07:50:07.178Z,2.33
2018-07-10T07:52:35.489Z,2.20
2018-07-10T07:55:04.371Z,2.40
2018-07-10T07:57:32.853Z,2.43
2018-07-10T08:00:01.231Z,2.20
2018-07-10T08:02:29.801Z,1.87
2018-07-10T08:04:58.273Z,1.83
2018-07-10T08:07:27.181Z,2.03
2018-07-10T08:09:56.589Z,1.97
2018-07-10T08:12:26.007Z,1.60
2018-07-10T08:14:54.781Z,1.60
2018-07-10T08:17:23.798Z,2.00
2018-07-10T08:19:52.430Z,2.00
2018-07-10T08:22:20.765Z,2.80
2018-07-10T08:24:49.037Z,3.00
2018-07-10T08:27:17.869Z,2.40
2018-07-10T08:29:46.168Z,2.63
2018-07-10T08:32:14.696Z,2.50
2018-07-10T08:34:42.961Z,2.37
2018-07-10T08:37:11.318Z,2.47
2018-07-10T08:39:39.580Z,1.93
2018-07-10T08:42:07.881Z,2.67
2018-07-10T08:44:36.257Z,2.17
2018-07-10T08:47:05.049Z,2.10
2018-07-10T08:49:36.117Z,2.10
2018-07-10T08:52:05.561Z,2.50
2018-07-10T08:54:33.923Z,2.20
2018-07-10T08:57:02.928Z,2.53
2018-07-10T08:59:31.667Z,2.10
2018-07-10T09:01:59.958Z,2.43
2018-07-10T09:04:28.274Z,2.43
2018-07-10T09:06:56.549Z,2.23
2018-07-10T09:09:24.888Z,2.80
2018-07-10T09:11:53.182Z,2.90
2018-07-10T09:14:22.559Z,3.00
2018-07-10T09:16:50.873Z,2.20
2018-07-10T09:19:26.453Z,2.60
2018-07-10T09:22:12.650Z,3.17
2018-07-10T09:24:47.705Z,2.77
2018-07-10T09:27:18.829Z,2.70
2018-07-10T09:29:47.750Z,2.73
2018-07-10T09:32:22.581Z,3.10
2018-07-10T09:34:50.885Z,3.00
2018-07-10T09:37:24.501Z,2.63
2018-07-10T09:39:57.665Z,2.57
2018-07-10T09:42:25.937Z,2.80
2018-07-10T09:44:54.262Z,3.63
2018-07-10T09:47:22.561Z,2.77
2018-07-10T09:49:50.904Z,3.10
2018-07-10T09:52:19.177Z,3.20
2018-07-10T09:54:47.564Z,2.93
2018-07-10T09:57:15.765Z,2.27
2018-07-10T09:59:44.049Z,2.83
2018-07-10T10:02:17.710Z,2.73
2018-07-10T10:04:46.072Z,2.20
2018-07-10T10:07:14.382Z,2.90
2018-07-10T10:09:42.681Z,2.50
2018-07-10T10:12:11.019Z,2.77
2018-07-10T10:14:39.289Z,2.50
2018-07-10T10:17:07.608Z,2.80
2018-07-10T10:19:35.908Z,2.63
2018-07-10T10:23:28.637Z,2.50
2018-07-10T10:25:56.977Z,2.53
2018-07-10T10:28:26.085Z,2.40
2018-07-10T10:30:54.373Z,2.10
2018-07-10T10:33:22.745Z,2.10
2018-07-10T10:35:51.163Z,2.40
2018-07-10T10:38:19.417Z,1.93
2018-07-10T10:40:49.357Z,2.90
2018-07-10T10:43:17.629Z,2.50
2018-07-10T10:45:46.074Z,2.33
2018-07-10T10:48:15.194Z,3.30
2018-07-10T10:50:47.896Z,3.00
2018-07-10T10:53:16.553Z,2.53
2018-07-10T10:55:44.833Z,3.27
2018-07-10T10:58:13.161Z,2.53
2018-07-10T11:00:41.730Z,2.93
2018-07-10T11:03:10.373Z,2.67
2018-07-10T11:05:40.958Z,2.20
2018-07-10T11:08:09.364Z,2.67
2018-07-10T11:10:37.637Z,2.80
2018-07-10T11:13:06.281Z,1.70
2018-07-10T11:15:39.865Z,1.90
2018-07-10T11:18:10.757Z,1.60
2018-07-10T11:21:04.998Z,2.00
2018-07-10T11:23:41.029Z,1.97
2018-07-10T11:26:18.877Z,1.70
2018-07-10T11:28:47.157Z,2.03
2018-07-10T11:31:15.425Z,1.67
2018-07-10T11:33:43.830Z,1.70
2018-07-10T11:36:12.178Z,1.70
2018-07-10T11:38:40.481Z,2.07
2018-07-10T11:41:08.865Z,1.90
2018-07-10T11:43:37.178Z,1.73
2018-07-10T11:46:05.513Z,1.67
2018-07-10T11:48:33.813Z,1.80
2018-07-10T11:51:02.138Z,2.00
2018-07-10T11:53:30.444Z,1.80
2018-07-10T11:55:58.829Z,1.97
2018-07-10T11:58:27.121Z,1.70
2018-07-10T12:00:55.405Z,1.30
2018-07-10T12:03:23.650Z,2.30
2018-07-10T12:05:52.869Z,1.70
2018-07-10T12:08:21.129Z,1.63
2018-07-10T12:11:20.642Z,2.37
2018-07-10T12:13:48.973Z,2.27
2018-07-10T12:16:17.409Z,1.93
2018-07-10T12:18:45.665Z,1.80
2018-07-10T12:21:17.241Z,1.43
2018-07-10T12:23:46.645Z,1.20
2018-07-10T12:26:14.945Z,1.60
2018-07-10T12:28:43.221Z,1.50
2018-07-10T12:31:11.526Z,1.70
2018-07-10T12:33:39.789Z,1.67
2018-07-10T12:36:09.113Z,1.30
2018-07-10T12:38:37.437Z,1.87
2018-07-10T12:41:05.765Z,1.57
2018-07-10T12:43:34.038Z,1.73
2018-07-10T12:46:02.345Z,1.73
2018-07-10T12:48:30.626Z,1.70
2018-07-10T12:50:58.930Z,1.40
2018-07-10T12:53:27.329Z,1.60
2018-07-10T12:55:55.693Z,1.40
2018-07-10T12:58:24.637Z,2.20
2018-07-10T13:00:52.961Z,1.53
2018-07-10T13:03:22.546Z,3.70
2018-07-10T13:05:54.384Z,1.80
2018-07-10T13:08:22.844Z,1.90
2018-07-10T13:10:51.124Z,1.20
2018-07-10T13:13:19.781Z,1.37
2018-07-10T13:15:48.066Z,1.20
2018-07-10T13:18:19.872Z,1.50
2018-07-10T13:20:48.124Z,1.90
2018-07-10T13:23:16.420Z,1.73
2018-07-10T13:25:44.756Z,1.90
2018-07-10T13:28:13.068Z,1.70
2018-07-10T13:30:41.681Z,2.00
2018-07-10T13:33:10.078Z,1.60
2018-07-10T13:35:38.377Z,1.20
2018-07-10T13:38:06.826Z,1.57
2018-07-10T13:40:36.382Z,1.50
2018-07-10T13:43:05.738Z,1.30
2018-07-10T13:45:33.990Z,1.43
2018-07-10T13:48:02.285Z,1.47
2018-07-10T13:50:32.768Z,1.50
2018-07-10T13:53:02.509Z,1.17
2018-07-10T13:55:32.713Z,1.47
2018-07-10T13:58:13.729Z,1.90
2018-07-10T14:00:44.637Z,1.00
2018-07-10T14:03:13.177Z,1.10
2018-07-10T14:05:42.710Z,1.40
2018-07-10T14:08:12.094Z,1.70
2018-07-10T14:10:40.401Z,1.50
2018-07-10T14:13:08.677Z,1.00
2018-07-10T14:15:37.045Z,0.77
2018-07-10T14:18:05.917Z,1.10
2018-07-10T14:20:40.988Z,1.43
2018-07-10T14:23:09.252Z,1.00
2018-07-10T14:25:37.543Z,0.90
2018-07-10T14:28:06.108Z,1.07
2018-07-10T14:30:38.077Z,1.00
2018-07-10T14:33:06.532Z,1.27
2018-07-10T14:35:35.265Z,0.73
2018-07-10T14:38:05.485Z,1.13
2018-07-10T14:40:36.650Z,0.80
2018-07-10T14:43:05.077Z,0.97
2018-07-10T14:45:33.914Z,1.30
2018-07-10T14:48:03.866Z,0.93
2018-07-10T14:50:32.826Z,1.00
2018-07-10T14:53:01.183Z,1.10
2018-07-10T14:55:29.472Z,0.83
2018-07-10T14:57:57.885Z,1.93
2018-07-10T15:00:26.166Z,0.90
2018-07-10T15:02:54.926Z,1.00
2018-07-10T15:05:23.326Z,1.00
2018-07-10T15:07:51.821Z,1.00
2018-07-10T15:10:20.150Z,1.13
2018-07-10T15:12:48.564Z,1.67
2018-07-10T15:15:19.011Z,1.30
2018-07-10T15:17:52.585Z,1.50
2018-07-10T15:20:20.909Z,0.97
2018-07-10T15:22:49.246Z,1.33
2018-07-10T15:25:17.510Z,1.43
2018-07-10T15:27:46.300Z,1.33
2018-07-10T15:30:14.609Z,1.10
2018-07-10T15:32:42.919Z,1.43
2018-07-10T15:35:11.242Z,1.87
2018-07-10T15:37:39.599Z,1.10
2018-07-10T15:40:07.919Z,0.97
2018-07-10T15:42:36.287Z,1.30
2018-07-10T15:45:05.600Z,1.27
2018-07-10T15:47:33.938Z,1.27
2018-07-10T15:50:03.249Z,1.10
2018-07-10T15:52:31.663Z,1.73
2018-07-10T15:55:01.970Z,1.60
2018-07-10T15:57:30.373Z,0.97
2018-07-10T15:59:58.723Z,2.50
2018-07-10T16:02:27.049Z,2.00
2018-07-10T16:04:56.441Z,1.73
2018-07-10T16:07:24.749Z,1.93
2018-07-10T16:09:53.065Z,1.60
2018-07-10T16:12:23.313Z,2.13
2018-07-10T16:14:52.649Z,1.70
2018-07-10T16:17:23.621Z,1.67
2018-07-10T16:19:57.222Z,1.53
2018-07-10T16:22:27.641Z,2.20
2018-07-10T16:25:01.268Z,1.90
2018-07-10T16:27:35.773Z,2.30
2018-07-10T16:30:05.314Z,1.90
2018-07-10T16:32:35.757Z,2.20
2018-07-10T16:35:04.217Z,3.00
2018-07-10T16:37:32.561Z,2.17
2018-07-10T16:40:00.902Z,2.20
2018-07-10T16:42:34.650Z,2.23
2018-07-10T16:45:04.943Z,2.17
2018-07-10T16:48:38.857Z,2.57
2018-07-10T16:51:16.793Z,2.20
2018-07-10T16:53:45.135Z,2.73
2018-07-10T16:56:13.537Z,2.07
2018-07-10T16:58:42.354Z,2.07
2018-07-10T17:01:10.829Z,2.97
2018-07-10T17:03:39.380Z,2.60
2018-07-10T17:06:07.700Z,2.60
2018-07-10T17:08:35.997Z,2.57
2018-07-10T17:11:04.457Z,2.57
2018-07-10T17:13:32.773Z,3.20
2018-07-10T17:16:01.113Z,2.60
2018-07-10T17:18:30.499Z,2.03
2018-07-10T17:20:59.890Z,2.80
2018-07-10T17:23:28.190Z,2.43
2018-07-10T17:25:56.658Z,2.77
2018-07-10T17:28:24.949Z,2.23
2018-07-10T17:30:53.260Z,2.30
2018-07-10T17:33:21.842Z,2.43
2018-07-10T17:35:50.216Z,3.10
2018-07-10T17:38:18.553Z,2.97
2018-07-10T17:40:46.869Z,3.57
2018-07-10T17:43:16.850Z,5.17
2018-07-10T17:45:45.150Z,3.80
2018-07-10T17:48:13.564Z,4.10
2018-07-10T17:50:41.857Z,4.07
2018-07-10T17:53:10.324Z,3.37
2018-07-10T17:55:38.621Z,3.97
2018-07-10T17:58:07.225Z,4.27
2018-07-10T18:00:35.910Z,3.50
2018-07-10T18:03:04.240Z,4.67
2018-07-10T18:05:33.805Z,4.27
2018-07-10T18:08:02.139Z,3.20
2018-07-10T18:10:30.464Z,3.60
2018-07-10T18:12:58.781Z,4.67
2018-07-10T18:15:27.053Z,3.37
2018-07-10T18:17:55.389Z,3.67
2018-07-10T18:20:23.679Z,3.83
2018-07-10T18:22:52.028Z,3.10
2018-07-10T18:25:20.266Z,2.73
2018-07-10T18:27:48.549Z,2.97
2018-07-10T18:30:16.909Z,3.10
2018-07-10T18:32:45.141Z,3.17
2018-07-10T18:35:13.614Z,3.20
2018-07-10T18:37:42.685Z,2.37
2018-07-10T18:40:11.021Z,2.97
2018-07-10T18:42:39.417Z,4.07
2018-07-10T18:45:07.717Z,3.93
2018-07-10T18:47:36.039Z,3.50
2018-07-10T18:50:04.643Z,3.50
2018-07-10T18:52:32.929Z,4.43
2018-07-10T18:55:01.875Z,3.33
2018-07-10T18:58:40.385Z,3.67
2018-07-10T19:01:21.996Z,2.93
2018-07-10T19:03:50.467Z,3.80
2018-07-10T19:06:23.033Z,4.47
2018-07-10T19:08:51.610Z,3.87
2018-07-10T19:11:26.357Z,3.73
2018-07-10T19:13:55.709Z,2.80
2018-07-10T19:16:24.778Z,3.17
2018-07-10T19:18:53.826Z,3.40
2018-07-10T19:21:28.253Z,3.17
2018-07-10T19:23:59.951Z,4.20
2018-07-10T19:26:29.641Z,3.10
2018-07-10T19:29:16.301Z,3.70
2018-07-10T19:31:45.621Z,4.47
2018-07-10T19:34:13.936Z,3.97
2018-07-10T19:36:42.565Z,3.60
2018-07-10T19:39:10.845Z,3.83
2018-07-10T19:41:39.208Z,5.53
2018-07-10T19:44:07.501Z,3.77
2018-07-10T19:46:36.486Z,3.63
2018-07-10T19:49:05.301Z,4.00
2018-07-10T19:51:33.930Z,4.30
2018-07-10T19:54:08.377Z,4.23
2018-07-10T19:56:37.881Z,4.23
2018-07-10T19:59:07.313Z,4.53
2018-07-10T20:01:59.264Z,6.20
2018-07-10T20:05:03.669Z,5.10
2018-07-10T20:07:39.261Z,5.63
2018-07-10T20:10:42.122Z,5.37
2018-07-10T20:13:16.271Z,6.00
2018-07-10T20:15:52.361Z,4.90
2018-07-10T20:18:44.413Z,4.40
2018-07-10T20:21:19.093Z,5.80
2018-07-10T20:23:57.857Z,5.73
2018-07-10T20:26:41.885Z,5.30
2018-07-10T20:29:19.113Z,5.80
2018-07-10T20:32:26.438Z,5.87
2018-07-10T20:35:02.621Z,5.73
2018-07-10T20:37:31.539Z,6.40
2018-07-10T20:40:00.994Z,6.33
2018-07-10T20:42:46.126Z,5.03
2018-07-10T20:45:14.517Z,6.40
2018-07-10T20:47:50.303Z,6.23
2018-07-10T20:50:31.341Z,5.90
2018-07-10T20:53:25.666Z,5.60
2018-07-10T20:55:58.953Z,6.30
2018-07-10T20:58:33.173Z,5.20
2018-07-10T21:01:06.537Z,6.73
2018-07-10T21:03:56.044Z,6.53
2018-07-10T21:07:02.209Z,6.00
2018-07-10T21:10:09.012Z,6.60
2018-07-10T21:12:48.295Z,7.13
2018-07-10T21:15:22.461Z,6.83
2018-07-10T21:18:00.530Z,7.40
2018-07-10T21:20:40.090Z,6.60
2018-07-10T21:23:21.879Z,7.03
2018-07-10T21:28:02.661Z,6.13
2018-07-10T21:30:38.521Z,6.07
2018-07-10T21:33:20.782Z,6.00
2018-07-10T21:35:58.516Z,8.27
2018-07-10T21:38:44.550Z,6.80
2018-07-10T21:41:26.796Z,6.43
2018-07-10T21:47:14.415Z,6.37
2018-07-10T21:49:45.672Z,6.80
2018-07-10T21:52:14.505Z,6.87
2018-07-10T21:54:43.949Z,8.40
2018-07-10T21:57:14.637Z,8.17
2018-07-10T21:59:51.157Z,6.80
2018-07-10T22:02:19.490Z,7.10
2018-07-10T22:04:48.317Z,6.93
2018-07-10T22:07:16.885Z,7.50
2018-07-10T22:09:45.332Z,8.00
2018-07-10T22:12:17.480Z,6.50
2018-07-10T22:14:46.099Z,6.50
2018-07-10T22:17:16.341Z,5.00
2018-07-10T22:19:45.411Z,5.67
2018-07-10T22:22:17.562Z,5.13
2018-07-10T22:24:45.901Z,6.00
2018-07-10T22:27:14.277Z,5.80
2018-07-10T22:29:47.876Z,4.90
2018-07-10T22:32:21.596Z,5.77
2018-07-10T22:34:49.912Z,5.40
2018-07-10T22:40:11.101Z,5.70
2018-07-10T22:42:43.082Z,5.23
2018-07-10T22:45:11.442Z,6.30
2018-07-10T22:47:40.904Z,6.00
2018-07-10T22:50:16.408Z,7.00
2018-07-10T22:52:58.675Z,6.37
2018-07-10T22:55:31.041Z,5.90
2018-07-10T22:58:02.829Z,6.67
2018-07-10T23:00:34.046Z,7.70
2018-07-10T23:03:13.241Z,7.17
2018-07-10T23:05:42.693Z,7.07
2018-07-10T23:08:11.001Z,7.87
2018-07-10T23:10:39.309Z,7.20
2018-07-10T23:13:07.658Z,7.10
2018-07-10T23:15:39.821Z,6.90
2018-07-10T23:18:09.221Z,7.43
2018-07-10T23:20:37.708Z,7.97
2018-07-10T23:23:06.118Z,8.47
2018-07-10T23:25:34.447Z,7.90
2018-07-10T23:28:04.662Z,7.50
2018-07-10T23:30:36.763Z,8.50
2018-07-10T23:33:07.625Z,8.50
2018-07-10T23:35:36.781Z,6.73
2018-07-10T23:38:10.615Z,7.47
2018-07-10T23:40:41.442Z,7.23
2018-07-10T23:43:10.018Z,7.97
2018-07-10T23:45:38.333Z,6.80
2018-07-10T23:48:07.786Z,7.37
2018-07-10T23:50:37.281Z,6.90
2018-07-10T23:54:14.221Z,7.70
2018-07-10T23:56:42.573Z,7.20
2018-07-10T23:59:10.955Z,7.47
